Strona główna
METAR-TAF:

METAR-TAF

Lotnisko :

Port lotniczy Rosario

Rosario, Argentyna

Szerokość geograficzna: 32-55S, Długość geograficzna: 060-47W, wysokość: 25 m

Aktualna obserwacja pogody

Raport powstał 18 minut temu, godzina 18:00 UTC
Wiatr 5 kt od południowy wschód
Temperatura 17°C
Wilgotność 39%
Ciśnienie 1025 hPa
Widzialność 10 km lub więcej
Brak chmur poniżej 1500 m i brak chmur cumulonimbus

METAR: SAAR 151800Z 14005KT CAVOK 17/03 Q1025

czas: 15:18 (18:18 UTC)

Prognoza

Raport powstał 1 godzina i 18 minut temu, godzina 17:00 UTC
Prognoza ważna od 15 godzina 18 UTC do 16 godzina 18 UTC
Wiatr 10 kt od północ
Widzialność 10 km lub więcej
Brak chmur poniżej 1500 m i brak chmur cumulonimbus

TAF: SAAR 151700Z 1518/1618 36010KT CAVOK TX19/1618Z TN02/1610Z

Obserwacja i prognoza pogody dla ponad 4000 lotnisk (raport METAR i TAF).

Dostępne stacje oznaczono żółtymi i czerwonymi punktami na mapie.

Najedź kursorem aby zobaczyć nazwę stacji.

Kliknij aby zobaczyć obserwacje i prognozy pogody.

Aby zmienić mapę: kliknij na zielony przycisk z czarnym krzyżykiem, aby powiększyć; na zielony przycisk z myślnikiem, aby pomniejszyć; na zielone strzałki, aby przejść do map sąsiednich.


METAR-TAF: